Cutler Bay, Florida
Current Conditions -  °F | °C
As of 8:53 AM on Monday 24 Nov 2014 (Local Time) from KTMB Reporting Station
Clear Clear  
Wind Chill: 81°   Ceiling: Unl
Heat Index: 87°   Visibility: 10mi
Dew Point: 75°   Wind: 6mph
Humidity: 82%   Direction: 190°S
Pressure: 30.03"   Gusts: NA
Location:  25.5586°N, 80.4556°W
Report Text: KTMB 241353Z 19005KT 10SM CLR 27/24 A3003 RMK AO2 SLP167 T02720239
Loading
Personal Weather Stations






























Interactive Weather Map New forecast layout! Learn more

10-Day Weather Forecast

Advertisements
Track Severe Weather on mobile